createdAt,value
2022-10-09T00:01:24.465Z,10.70
2022-10-09T00:03:54.402Z,10.80
2022-10-09T00:06:25.160Z,10.80
2022-10-09T00:08:54.950Z,10.80
2022-10-09T00:11:25.387Z,10.90
2022-10-09T00:13:54.538Z,10.80
2022-10-09T00:16:23.717Z,10.80
2022-10-09T00:18:52.800Z,10.80
2022-10-09T00:21:23.385Z,10.70
2022-10-09T00:23:52.387Z,10.70
2022-10-09T00:26:22.462Z,10.70
2022-10-09T00:28:51.423Z,10.70
2022-10-09T00:31:20.532Z,10.70
2022-10-09T00:33:48.917Z,10.70
2022-10-09T00:36:19.778Z,10.70
2022-10-09T00:38:48.251Z,10.70
2022-10-09T00:41:19.216Z,10.70
2022-10-09T00:43:51.091Z,10.70
2022-10-09T00:46:28.493Z,10.80
2022-10-09T00:49:06.687Z,10.80
2022-10-09T00:51:36.306Z,10.80
2022-10-09T00:54:08.448Z,10.80
2022-10-09T00:56:36.975Z,10.70
2022-10-09T00:59:08.122Z,10.70
2022-10-09T01:01:36.618Z,10.60
2022-10-09T01:04:04.898Z,10.60
2022-10-09T01:06:47.945Z,10.50
2022-10-09T01:09:20.197Z,10.40
2022-10-09T01:11:53.606Z,10.50
2022-10-09T01:14:27.219Z,10.50
2022-10-09T01:17:02.891Z,10.60
2022-10-09T01:19:47.490Z,10.70
2022-10-09T01:22:29.460Z,10.70
2022-10-09T01:25:06.444Z,10.70
2022-10-09T01:27:38.214Z,10.70
2022-10-09T01:30:09.456Z,10.70
2022-10-09T01:32:42.268Z,10.70
2022-10-09T01:35:13.771Z,10.70
2022-10-09T01:37:45.596Z,10.70
2022-10-09T01:40:17.491Z,10.70
2022-10-09T01:42:48.015Z,10.70
2022-10-09T01:45:16.985Z,10.70
2022-10-09T01:47:45.239Z,10.60
2022-10-09T01:50:18.810Z,10.60
2022-10-09T01:52:51.314Z,10.60
2022-10-09T01:55:28.424Z,10.60
2022-10-09T01:58:05.579Z,10.60
2022-10-09T02:00:38.177Z,10.60
2022-10-09T02:03:10.781Z,10.60
2022-10-09T02:05:41.795Z,10.60
2022-10-09T02:08:13.395Z,10.60
2022-10-09T02:10:43.378Z,10.60
2022-10-09T02:13:13.783Z,10.60
2022-10-09T02:15:49.490Z,10.60
2022-10-09T02:18:22.470Z,10.60
2022-10-09T02:20:55.649Z,10.60
2022-10-09T02:23:25.586Z,10.60
2022-10-09T02:25:54.847Z,10.60
2022-10-09T02:28:24.689Z,10.60
2022-10-09T02:30:59.320Z,10.60
2022-10-09T02:33:33.668Z,10.50
2022-10-09T02:36:02.998Z,10.40
2022-10-09T02:38:31.218Z,10.40
2022-10-09T02:41:00.446Z,10.40
2022-10-09T02:43:30.351Z,10.30
2022-10-09T02:45:58.790Z,10.30
2022-10-09T02:48:26.982Z,10.30
2022-10-09T02:50:55.196Z,10.30
2022-10-09T02:53:23.435Z,10.30
2022-10-09T02:55:51.624Z,10.20
2022-10-09T02:58:19.986Z,10.20
2022-10-09T03:00:51.999Z,10.20
2022-10-09T03:03:21.413Z,10.10
2022-10-09T03:05:49.863Z,10.00
2022-10-09T03:08:18.061Z,10.00
2022-10-09T03:10:46.231Z,10.00
2022-10-09T03:13:14.497Z,9.90
2022-10-09T03:15:42.796Z,9.90
2022-10-09T03:18:12.458Z,9.90
2022-10-09T03:20:41.040Z,9.90
2022-10-09T03:23:09.248Z,9.90
2022-10-09T03:25:37.766Z,9.90
2022-10-09T03:28:06.479Z,9.90
2022-10-09T03:30:34.706Z,9.80
2022-10-09T03:33:03.216Z,9.90
2022-10-09T03:35:32.757Z,9.80
2022-10-09T03:38:01.190Z,9.90
2022-10-09T03:40:29.415Z,9.80
2022-10-09T03:42:57.993Z,9.90
2022-10-09T03:45:26.288Z,9.90
2022-10-09T03:47:54.486Z,9.90
2022-10-09T03:50:22.791Z,9.80
2022-10-09T03:52:52.560Z,9.80
2022-10-09T03:55:20.846Z,9.80
2022-10-09T03:57:49.099Z,9.80
2022-10-09T04:00:17.783Z,9.80
2022-10-09T04:02:46.368Z,9.80
2022-10-09T04:05:15.015Z,9.80
2022-10-09T04:07:43.323Z,9.70
2022-10-09T04:10:13.343Z,9.80
2022-10-09T04:12:41.630Z,9.80
2022-10-09T04:15:11.437Z,9.70
2022-10-09T04:17:39.695Z,9.70
2022-10-09T04:20:08.854Z,9.70
2022-10-09T04:22:37.127Z,9.70
2022-10-09T04:25:05.776Z,9.70
2022-10-09T04:27:35.384Z,9.70
2022-10-09T04:30:03.637Z,9.60
2022-10-09T04:32:31.955Z,9.60
2022-10-09T04:35:00.181Z,9.60
2022-10-09T04:37:28.385Z,9.60
2022-10-09T04:39:56.777Z,9.60
2022-10-09T04:42:25.025Z,9.60
2022-10-09T04:44:54.659Z,9.60
2022-10-09T04:47:22.948Z,9.60
2022-10-09T04:49:51.167Z,9.60
2022-10-09T04:52:19.461Z,9.50
2022-10-09T04:54:47.643Z,9.50
2022-10-09T04:57:15.864Z,9.50
2022-10-09T04:59:44.067Z,9.50
2022-10-09T05:02:13.787Z,9.50
2022-10-09T05:04:42.107Z,9.50
2022-10-09T05:07:10.358Z,9.50
2022-10-09T05:09:38.604Z,9.50
2022-10-09T05:12:06.944Z,9.50
2022-10-09T05:14:35.142Z,9.40
2022-10-09T05:17:14.484Z,9.50
2022-10-09T05:19:44.610Z,9.50
2022-10-09T05:22:12.896Z,9.50
2022-10-09T05:24:41.149Z,9.50
2022-10-09T05:27:09.379Z,9.50
2022-10-09T05:29:37.595Z,9.50
2022-10-09T05:32:05.961Z,9.50
2022-10-09T05:34:35.251Z,9.50
2022-10-09T05:37:04.925Z,9.50
2022-10-09T05:39:35.907Z,9.50
2022-10-09T05:42:04.318Z,9.50
2022-10-09T05:44:32.656Z,9.60
2022-10-09T05:47:00.984Z,9.60
2022-10-09T05:49:29.245Z,9.70
2022-10-09T05:51:57.498Z,9.60
2022-10-09T05:54:27.438Z,9.60
2022-10-09T05:56:55.723Z,9.60
2022-10-09T05:59:23.925Z,9.60
2022-10-09T06:01:54.616Z,9.70
2022-10-09T06:04:24.462Z,9.70
2022-10-09T06:06:52.850Z,9.70
2022-10-09T06:09:23.203Z,9.70
2022-10-09T06:11:53.967Z,9.70
2022-10-09T06:14:23.371Z,9.70
2022-10-09T06:16:51.883Z,9.70
2022-10-09T06:19:21.185Z,9.80
2022-10-09T06:21:49.509Z,9.80
2022-10-09T06:24:24.479Z,9.80
2022-10-09T06:26:59.445Z,9.80
2022-10-09T06:29:28.326Z,9.90
2022-10-09T06:31:56.586Z,9.90
2022-10-09T06:34:25.336Z,9.90
2022-10-09T06:36:53.846Z,9.90
2022-10-09T06:39:22.671Z,10.00
2022-10-09T06:41:51.317Z,10.00
2022-10-09T06:44:41.894Z,10.00
2022-10-09T06:47:10.265Z,10.00
2022-10-09T06:49:38.487Z,10.00
2022-10-09T06:52:06.735Z,10.00
2022-10-09T06:54:35.099Z,10.00
2022-10-09T06:57:03.662Z,10.00
2022-10-09T06:59:32.898Z,10.00
2022-10-09T07:02:02.713Z,10.00
2022-10-09T07:04:31.184Z,10.10
2022-10-09T07:06:59.449Z,10.10
2022-10-09T07:09:27.733Z,10.20
2022-10-09T07:11:56.121Z,10.10
2022-10-09T07:14:24.352Z,10.20
2022-10-09T07:16:53.540Z,10.30
2022-10-09T07:19:23.153Z,10.30
2022-10-09T07:21:53.218Z,10.30
2022-10-09T07:24:21.612Z,10.40
2022-10-09T07:26:49.978Z,10.40
2022-10-09T07:29:20.061Z,10.60
2022-10-09T07:31:49.849Z,10.70
2022-10-09T07:34:18.242Z,10.70
2022-10-09T07:36:47.857Z,10.70
2022-10-09T07:39:16.218Z,10.80
2022-10-09T07:41:44.706Z,10.80
2022-10-09T07:44:13.223Z,10.90
2022-10-09T07:46:41.488Z,11.00
2022-10-09T07:49:09.843Z,10.90
2022-10-09T07:51:38.392Z,10.90
2022-10-09T07:54:08.193Z,10.90
2022-10-09T07:56:38.653Z,11.10
2022-10-09T07:59:09.468Z,11.20
2022-10-09T08:01:38.012Z,11.20
2022-10-09T08:04:06.731Z,11.30
2022-10-09T08:06:35.391Z,11.50
2022-10-09T08:09:05.754Z,11.50
2022-10-09T08:11:36.225Z,11.70
2022-10-09T08:14:04.543Z,11.40
2022-10-09T08:16:33.486Z,11.40
2022-10-09T08:19:02.934Z,11.30
2022-10-09T08:21:32.999Z,11.20
2022-10-09T08:24:01.900Z,11.20
2022-10-09T08:26:32.090Z,11.20
2022-10-09T08:29:03.808Z,11.20
2022-10-09T08:31:33.145Z,11.20
2022-10-09T08:34:03.330Z,11.30
2022-10-09T08:36:32.493Z,11.40
2022-10-09T08:39:00.740Z,11.40
2022-10-09T08:41:45.159Z,11.40
2022-10-09T08:44:20.211Z,11.30
2022-10-09T08:46:55.354Z,11.40
2022-10-09T08:49:30.387Z,11.30
2022-10-09T08:52:01.507Z,11.30
2022-10-09T08:54:37.744Z,11.30
2022-10-09T08:57:14.032Z,11.30
2022-10-09T08:59:44.592Z,11.20
2022-10-09T09:02:38.919Z,11.20
2022-10-09T09:05:23.917Z,11.30
2022-10-09T09:07:59.939Z,11.50
2022-10-09T09:10:38.535Z,11.50
2022-10-09T09:13:20.614Z,11.60
2022-10-09T09:15:55.638Z,11.80
2022-10-09T09:18:42.819Z,11.90
2022-10-09T09:21:27.272Z,12.00
2022-10-09T09:23:55.741Z,12.10
2022-10-09T09:26:25.143Z,12.20
2022-10-09T09:28:59.991Z,12.20
2022-10-09T09:31:32.016Z,12.30
2022-10-09T09:34:05.685Z,12.40
2022-10-09T09:36:40.359Z,12.40
2022-10-09T09:39:55.657Z,12.40
2022-10-09T09:42:03.677Z,12.30
2022-10-09T09:44:33.089Z,12.10
2022-10-09T09:47:03.191Z,12.10
2022-10-09T09:49:31.474Z,12.30
2022-10-09T09:52:02.654Z,12.30
2022-10-09T09:54:32.061Z,12.30
2022-10-09T09:57:13.750Z,12.20
2022-10-09T09:59:44.817Z,12.20
2022-10-09T10:02:18.667Z,12.20
2022-10-09T10:04:52.639Z,12.30
2022-10-09T10:07:31.763Z,12.30
2022-10-09T10:10:07.836Z,12.30
2022-10-09T10:12:42.102Z,12.40
2022-10-09T10:15:20.863Z,12.40
2022-10-09T10:17:56.145Z,12.50
2022-10-09T10:20:24.863Z,12.40
2022-10-09T10:22:55.121Z,12.40
2022-10-09T10:25:27.220Z,12.50
2022-10-09T10:28:01.861Z,12.50
2022-10-09T10:30:31.346Z,12.60
2022-10-09T10:33:06.722Z,12.50
2022-10-09T10:35:38.074Z,12.40
2022-10-09T10:38:13.440Z,12.30
2022-10-09T10:40:47.197Z,12.30
2022-10-09T10:43:24.303Z,12.30
2022-10-09T10:46:01.116Z,12.30
2022-10-09T10:48:33.142Z,12.30
2022-10-09T10:51:10.795Z,12.30
2022-10-09T10:53:53.760Z,12.30
2022-10-09T10:56:29.602Z,12.20
2022-10-09T10:59:06.502Z,12.20
2022-10-09T11:01:45.377Z,12.10
2022-10-09T11:04:41.429Z,12.10
2022-10-09T11:07:21.814Z,12.10
2022-10-09T11:09:59.771Z,12.10
2022-10-09T11:12:57.816Z,12.20
2022-10-09T11:15:37.510Z,12.10
2022-10-09T11:18:18.710Z,12.20
2022-10-09T11:21:06.627Z,12.00
2022-10-09T11:23:49.608Z,12.10
2022-10-09T11:26:30.285Z,12.00
2022-10-09T11:29:03.173Z,12.10
2022-10-09T11:31:36.865Z,12.20
2022-10-09T11:34:13.538Z,12.20
2022-10-09T11:36:44.857Z,12.30
2022-10-09T11:39:18.254Z,12.50
2022-10-09T11:41:48.718Z,12.50
2022-10-09T11:44:46.107Z,12.50
2022-10-09T11:47:22.545Z,12.60
2022-10-09T11:50:14.316Z,12.50
2022-10-09T11:52:51.620Z,12.50
2022-10-09T11:55:22.331Z,12.40
2022-10-09T11:57:51.216Z,12.20
2022-10-09T12:00:30.919Z,12.30
2022-10-09T12:03:02.320Z,12.20
2022-10-09T12:05:41.161Z,12.30
2022-10-09T12:08:16.940Z,12.30
2022-10-09T12:10:54.007Z,12.30
2022-10-09T12:13:32.838Z,12.30
2022-10-09T12:16:01.206Z,12.40
2022-10-09T12:18:32.515Z,12.30
2022-10-09T12:21:04.449Z,12.20
2022-10-09T12:23:38.525Z,12.20
2022-10-09T12:26:11.917Z,12.20
2022-10-09T12:28:46.951Z,12.20
2022-10-09T12:31:21.924Z,12.10
2022-10-09T12:33:55.205Z,12.10
2022-10-09T12:36:25.973Z,12.20
2022-10-09T12:38:55.691Z,12.20
2022-10-09T12:41:26.315Z,12.20
2022-10-09T12:43:56.812Z,12.30
2022-10-09T12:46:31.643Z,12.20
2022-10-09T12:49:00.800Z,12.20
2022-10-09T12:51:31.530Z,12.20
2022-10-09T12:54:01.443Z,12.40
2022-10-09T12:56:31.550Z,12.50
2022-10-09T12:59:00.789Z,12.50
2022-10-09T13:01:29.608Z,12.70
2022-10-09T13:04:00.390Z,12.90
2022-10-09T13:06:31.622Z,13.10
2022-10-09T13:09:04.163Z,13.20
2022-10-09T13:11:35.519Z,13.10
2022-10-09T13:14:03.939Z,13.10
2022-10-09T13:16:43.697Z,13.10
2022-10-09T13:19:26.227Z,13.20
2022-10-09T13:22:10.247Z,13.20
2022-10-09T13:24:42.693Z,13.10
2022-10-09T13:27:14.575Z,13.20
2022-10-09T13:29:44.003Z,13.30
2022-10-09T13:32:14.449Z,13.30
2022-10-09T13:34:42.762Z,13.30
2022-10-09T13:37:13.967Z,13.30
2022-10-09T13:39:43.651Z,13.20
2022-10-09T13:42:15.637Z,13.10
2022-10-09T13:44:44.370Z,12.90
2022-10-09T13:47:12.668Z,12.80
2022-10-09T13:49:40.964Z,12.70
2022-10-09T13:52:09.616Z,12.50
2022-10-09T13:54:38.145Z,12.50
2022-10-09T13:57:08.284Z,12.60
2022-10-09T13:59:37.051Z,12.60
2022-10-09T14:02:05.402Z,12.60
2022-10-09T14:04:33.718Z,12.70
2022-10-09T14:07:02.033Z,12.70
2022-10-09T14:09:30.278Z,12.80
2022-10-09T14:11:58.953Z,13.00
2022-10-09T14:14:28.591Z,13.10
2022-10-09T14:16:56.814Z,13.10
2022-10-09T14:19:27.831Z,13.10
2022-10-09T14:21:56.205Z,13.00
2022-10-09T14:24:24.898Z,12.90
2022-10-09T14:26:53.398Z,12.70
2022-10-09T14:29:21.752Z,12.60
2022-10-09T14:31:52.633Z,12.50
2022-10-09T14:34:21.108Z,12.40
2022-10-09T14:36:49.963Z,12.30
2022-10-09T14:39:18.418Z,12.20
2022-10-09T14:41:46.777Z,12.20
2022-10-09T14:44:15.051Z,12.10
2022-10-09T14:46:43.370Z,12.10
2022-10-09T14:49:13.254Z,12.10
2022-10-09T14:51:42.184Z,12.00
2022-10-09T14:54:12.331Z,11.90
2022-10-09T14:56:40.902Z,11.80
2022-10-09T14:59:09.239Z,11.80
2022-10-09T15:01:37.459Z,11.70
2022-10-09T15:04:06.966Z,11.70
2022-10-09T15:06:36.609Z,11.60
2022-10-09T15:09:06.321Z,11.50
2022-10-09T15:11:36.028Z,11.50
2022-10-09T15:14:04.969Z,11.40
2022-10-09T15:16:33.307Z,11.30
2022-10-09T15:19:01.989Z,11.30
2022-10-09T15:21:32.235Z,11.20
2022-10-09T15:24:03.476Z,11.20
2022-10-09T15:26:34.087Z,11.10
2022-10-09T15:29:03.723Z,11.00
2022-10-09T15:31:33.354Z,11.00
2022-10-09T15:34:02.298Z,10.90
2022-10-09T15:36:31.799Z,10.80
2022-10-09T15:39:05.707Z,10.70
2022-10-09T15:41:35.552Z,10.60
2022-10-09T15:44:05.891Z,10.50
2022-10-09T15:46:34.712Z,10.40
2022-10-09T15:49:02.953Z,10.30
2022-10-09T15:51:33.252Z,10.20
2022-10-09T15:54:03.480Z,10.10
2022-10-09T15:56:34.886Z,10.00
2022-10-09T15:59:07.365Z,9.90
2022-10-09T16:01:35.642Z,9.80
2022-10-09T16:04:04.010Z,9.60
2022-10-09T16:06:32.214Z,9.60
2022-10-09T16:09:04.025Z,9.60
2022-10-09T16:11:32.743Z,9.50
2022-10-09T16:14:01.021Z,9.40
2022-10-09T16:16:29.605Z,9.30
2022-10-09T16:18:58.204Z,9.20
2022-10-09T16:21:29.317Z,9.10
2022-10-09T16:23:59.650Z,9.00
2022-10-09T16:26:30.811Z,8.90
2022-10-09T16:29:00.567Z,8.80
2022-10-09T16:31:31.386Z,8.70
2022-10-09T16:34:00.017Z,8.70
2022-10-09T16:36:28.926Z,8.50
2022-10-09T16:38:58.333Z,8.40
2022-10-09T16:41:26.830Z,8.30
2022-10-09T16:43:57.763Z,8.20
2022-10-09T16:46:28.912Z,8.10
2022-10-09T16:48:58.457Z,8.00
2022-10-09T16:51:29.727Z,8.00
2022-10-09T16:54:00.329Z,7.90
2022-10-09T16:56:31.438Z,7.80
2022-10-09T16:59:03.220Z,7.70
2022-10-09T17:01:32.340Z,7.70
2022-10-09T17:04:02.459Z,7.60
2022-10-09T17:06:31.093Z,7.60
2022-10-09T17:09:00.649Z,7.50
2022-10-09T17:11:30.606Z,7.40
2022-10-09T17:14:00.491Z,7.40
2022-10-09T17:16:31.259Z,7.30
2022-10-09T17:19:00.346Z,7.30
2022-10-09T17:21:32.895Z,7.20
2022-10-09T17:24:05.050Z,7.20
2022-10-09T17:26:33.468Z,7.20
2022-10-09T17:29:04.786Z,7.10
2022-10-09T17:31:33.128Z,7.10
2022-10-09T17:34:03.222Z,7.10
2022-10-09T17:36:34.600Z,7.00
2022-10-09T17:39:04.343Z,7.00
2022-10-09T17:41:32.986Z,7.00
2022-10-09T17:44:02.714Z,6.90
2022-10-09T17:46:31.871Z,6.80
2022-10-09T17:49:01.113Z,6.80
2022-10-09T17:51:31.371Z,6.70
2022-10-09T17:54:02.765Z,6.60
2022-10-09T17:56:33.250Z,6.60
2022-10-09T17:59:03.529Z,6.50
2022-10-09T18:01:32.156Z,6.50
2022-10-09T18:04:00.670Z,6.50
2022-10-09T18:06:32.081Z,6.50
2022-10-09T18:09:00.701Z,6.40
2022-10-09T18:11:30.204Z,6.30
2022-10-09T18:13:58.756Z,6.30
2022-10-09T18:16:35.674Z,6.30
2022-10-09T18:19:06.432Z,6.20
2022-10-09T18:21:35.669Z,6.20
2022-10-09T18:24:04.009Z,6.20
2022-10-09T18:26:32.528Z,6.20
2022-10-09T18:29:01.477Z,6.20
2022-10-09T18:31:31.319Z,6.20
2022-10-09T18:34:00.933Z,6.10
2022-10-09T18:36:33.790Z,6.10
2022-10-09T18:39:06.434Z,6.10
2022-10-09T18:41:35.157Z,6.10
2022-10-09T18:44:04.853Z,6.10
2022-10-09T18:46:38.439Z,6.00
2022-10-09T18:49:09.723Z,5.90
2022-10-09T18:51:39.039Z,5.90
2022-10-09T18:54:08.659Z,5.80
2022-10-09T18:56:39.440Z,5.80
2022-10-09T18:59:11.900Z,5.70
2022-10-09T19:01:42.128Z,5.70
2022-10-09T19:04:10.519Z,5.60
2022-10-09T19:06:38.826Z,5.60
2022-10-09T19:09:07.236Z,5.50
2022-10-09T19:11:35.907Z,5.50
2022-10-09T19:14:04.675Z,5.40
2022-10-09T19:16:35.029Z,5.40
2022-10-09T19:19:05.517Z,5.40
2022-10-09T19:21:33.894Z,5.40
2022-10-09T19:24:06.143Z,5.40
2022-10-09T19:26:35.415Z,5.30
2022-10-09T19:29:04.067Z,5.30
2022-10-09T19:31:33.320Z,5.30
2022-10-09T19:34:02.113Z,5.20
2022-10-09T19:36:36.642Z,5.20
2022-10-09T19:39:05.972Z,5.10
2022-10-09T19:41:34.275Z,5.10
2022-10-09T19:44:02.653Z,5.10
2022-10-09T19:46:31.020Z,5.00
2022-10-09T19:48:59.672Z,5.00
2022-10-09T19:51:28.282Z,5.00
2022-10-09T19:53:59.127Z,4.90
2022-10-09T19:56:29.625Z,4.90
2022-10-09T19:58:59.063Z,4.90
2022-10-09T20:01:28.421Z,4.90
2022-10-09T20:03:57.840Z,4.90
2022-10-09T20:06:27.379Z,4.80
2022-10-09T20:08:57.340Z,4.80
2022-10-09T20:11:27.388Z,4.80
2022-10-09T20:13:56.719Z,4.70
2022-10-09T20:16:26.129Z,4.70
2022-10-09T20:18:55.720Z,4.60
2022-10-09T20:21:24.049Z,4.60
2022-10-09T20:23:52.515Z,4.50
2022-10-09T20:26:22.698Z,4.40
2022-10-09T20:28:53.813Z,4.40
2022-10-09T20:31:25.566Z,4.40
2022-10-09T20:33:54.986Z,4.30
2022-10-09T20:36:26.113Z,4.30
2022-10-09T20:38:57.332Z,4.30
2022-10-09T20:41:27.750Z,4.30
2022-10-09T20:43:57.852Z,4.30
2022-10-09T20:46:28.139Z,4.20
2022-10-09T20:48:57.050Z,4.20
2022-10-09T20:51:26.176Z,4.10
2022-10-09T20:53:56.164Z,4.10
2022-10-09T20:56:28.015Z,4.00
2022-10-09T20:58:56.975Z,4.00
2022-10-09T21:01:25.739Z,3.90
2022-10-09T21:03:54.073Z,3.90
2022-10-09T21:06:23.517Z,3.90
2022-10-09T21:08:52.218Z,3.90
2022-10-09T21:11:21.262Z,3.90
2022-10-09T21:13:51.961Z,3.90
2022-10-09T21:16:22.718Z,3.80
2022-10-09T21:18:55.652Z,3.80
2022-10-09T21:21:24.755Z,3.70
2022-10-09T21:23:54.412Z,3.70
2022-10-09T21:26:23.950Z,3.60
2022-10-09T21:28:58.440Z,3.60
2022-10-09T21:31:30.870Z,3.60
2022-10-09T21:34:00.392Z,3.50
2022-10-09T21:36:35.509Z,3.60
2022-10-09T21:39:06.483Z,3.50
2022-10-09T21:41:35.325Z,3.50
2022-10-09T21:44:05.431Z,3.50
2022-10-09T21:46:34.210Z,3.50
2022-10-09T21:49:07.338Z,3.50
2022-10-09T21:51:35.962Z,3.50
2022-10-09T21:54:04.282Z,3.50
2022-10-09T21:56:32.623Z,3.50
2022-10-09T21:59:00.879Z,3.50
2022-10-09T22:01:30.770Z,3.40
2022-10-09T22:03:59.689Z,3.40
2022-10-09T22:06:28.021Z,3.40
2022-10-09T22:08:56.215Z,3.30
2022-10-09T22:11:24.619Z,3.30
2022-10-09T22:13:52.809Z,3.30
2022-10-09T22:16:21.143Z,3.30
2022-10-09T22:18:50.902Z,3.20
2022-10-09T22:21:19.557Z,3.20
2022-10-09T22:23:47.883Z,3.10
2022-10-09T22:26:18.989Z,3.10
2022-10-09T22:28:48.135Z,3.00
2022-10-09T22:31:19.022Z,3.00
2022-10-09T22:33:52.740Z,3.00
2022-10-09T22:36:24.071Z,3.00
2022-10-09T22:38:55.277Z,3.00
2022-10-09T22:41:24.407Z,3.00
2022-10-09T22:43:55.166Z,3.00
2022-10-09T22:46:26.097Z,3.00
2022-10-09T22:48:55.905Z,3.00
2022-10-09T22:51:25.651Z,3.00
2022-10-09T22:53:54.028Z,2.90
2022-10-09T22:56:23.835Z,2.90
2022-10-09T22:58:53.129Z,2.90
2022-10-09T23:01:25.171Z,2.90
2022-10-09T23:03:54.997Z,2.90
2022-10-09T23:06:23.262Z,2.90
2022-10-09T23:08:51.754Z,2.80
2022-10-09T23:11:21.386Z,2.80
2022-10-09T23:13:54.208Z,2.80
2022-10-09T23:16:23.464Z,2.70
2022-10-09T23:18:52.322Z,2.70
2022-10-09T23:21:23.609Z,2.70
2022-10-09T23:23:52.949Z,2.70
2022-10-09T23:26:24.156Z,2.70
2022-10-09T23:28:53.777Z,2.70
2022-10-09T23:31:22.902Z,2.70
2022-10-09T23:33:51.213Z,2.70
2022-10-09T23:36:22.594Z,2.70
2022-10-09T23:38:51.582Z,2.60
2022-10-09T23:41:21.547Z,2.60
2022-10-09T23:43:51.126Z,2.50
2022-10-09T23:46:20.990Z,2.60
2022-10-09T23:48:50.418Z,2.70
2022-10-09T23:51:19.839Z,2.60
2022-10-09T23:53:49.651Z,2.60
2022-10-09T23:56:19.892Z,2.60
2022-10-09T23:58:48.364Z,2.50
